Time;durP1;ratioP1;P1;durP2;ratioP2;P2;SDS_P1;SDS_P2;PMS_P1;PMS_P2;Temp;Humidity;BMP_temperature;BMP_pressure;BME280_temperature;BME280_humidity;BME280_pressure;Samples;Min_cycle;Max_cycle;Signal;HPM_P1;HPM_P2
2021/12/22 00:01:05;;;;;;;12.63;8.10;;;1.20;82.30;;;;;;5048747;28;20041;-65
2021/12/22 00:03:30;;;;;;;11.63;8.48;;;1.20;82.20;;;;;;5048967;28;20049;-65
2021/12/22 00:05:56;;;;;;;11.70;7.80;;;1.10;82.10;;;;;;5048324;28;20041;-65
2021/12/22 00:08:23;;;;;;;13.90;8.80;;;1.10;82.00;;;;;;5048954;28;20460;-65
2021/12/22 00:10:49;;;;;;;12.32;8.82;;;1.10;82.00;;;;;;5048736;28;20136;-65
2021/12/22 00:13:15;;;;;;;10.48;7.28;;;1.10;82.00;;;;;;5049168;28;20132;-65
2021/12/22 00:15:41;;;;;;;14.07;7.60;;;1.00;82.10;;;;;;5047420;28;20033;-65
2021/12/22 00:18:07;;;;;;;12.80;7.75;;;1.00;82.20;;;;;;5048452;28;20048;-65
2021/12/22 00:20:33;;;;;;;14.30;8.63;;;1.00;82.20;;;;;;5046807;28;20041;-65
2021/12/22 00:22:59;;;;;;;13.95;7.38;;;1.00;82.20;;;;;;5041515;28;20056;-65
2021/12/22 00:25:26;;;;;;;13.73;8.35;;;1.00;82.20;;;;;;5041729;28;20040;-65
2021/12/22 00:27:54;;;;;;;12.43;8.07;;;1.00;82.20;;;;;;5030381;28;20143;-65
2021/12/22 00:30:20;;;;;;;12.13;7.10;;;1.00;82.10;;;;;;5048036;28;20099;-64
2021/12/22 00:32:51;;;;;;;16.25;8.80;;;1.00;81.90;;;;;;5047807;28;20453;-64
2021/12/22 00:35:20;;;;;;;14.32;8.32;;;0.90;81.80;;;;;;5047524;28;20049;-65
2021/12/22 00:37:46;;;;;;;10.57;6.63;;;0.90;81.90;;;;;;5048311;28;20509;-65
2021/12/22 00:40:12;;;;;;;10.07;6.38;;;0.90;81.80;;;;;;5047768;28;20045;-65
2021/12/22 00:42:38;;;;;;;11.48;6.82;;;0.90;81.70;;;;;;5046309;28;20060;-65
2021/12/22 00:45:05;;;;;;;11.70;7.75;;;0.90;81.70;;;;;;5046182;28;20045;-65
2021/12/22 00:47:32;;;;;;;11.02;6.68;;;0.90;81.70;;;;;;5047792;28;20045;-65
2021/12/22 00:49:59;;;;;;;11.35;7.45;;;0.90;81.70;;;;;;5043189;28;20396;-65
2021/12/22 00:52:25;;;;;;;10.88;6.68;;;0.90;81.60;;;;;;5045776;28;20080;-65
2021/12/22 00:54:52;;;;;;;12.32;7.10;;;0.80;81.60;;;;;;5043075;28;20037;-65
2021/12/22 00:57:17;;;;;;;12.98;6.70;;;0.80;81.60;;;;;;5043089;28;20490;-64
2021/12/22 00:59:45;;;;;;;10.40;6.72;;;0.80;81.50;;;;;;5047943;28;20048;-65
2021/12/22 01:02:12;;;;;;;9.85;6.43;;;0.80;81.50;;;;;;5047396;28;20045;-65
2021/12/22 01:04:38;;;;;;;10.25;6.28;;;0.70;81.50;;;;;;5048160;28;20521;-65
2021/12/22 01:07:05;;;;;;;9.35;6.03;;;0.70;81.50;;;;;;5048400;28;20127;-65
2021/12/22 01:09:31;;;;;;;12.40;7.40;;;0.70;81.50;;;;;;5047785;28;20123;-65
2021/12/22 01:11:57;;;;;;;13.30;7.22;;;0.70;81.40;;;;;;5047665;28;20347;-65
2021/12/22 01:14:23;;;;;;;12.13;7.00;;;0.70;81.40;;;;;;5048313;28;20064;-65
2021/12/22 01:16:55;;;;;;;9.50;7.03;;;0.70;81.30;;;;;;5046409;28;20045;-65
2021/12/22 01:19:32;;;;;;;16.92;7.70;;;0.70;81.40;;;;;;5046707;28;20072;-65
2021/12/22 01:22:07;;;;;;;12.85;6.82;;;0.70;81.30;;;;;;5047182;28;20052;-65
2021/12/22 01:24:34;;;;;;;15.23;7.13;;;0.60;81.30;;;;;;5047896;28;20041;-65
2021/12/22 01:27:07;;;;;;;11.80;7.70;;;0.70;81.30;;;;;;5048109;28;20102;-65
2021/12/22 01:29:35;;;;;;;11.20;6.82;;;0.60;81.20;;;;;;5047761;28;20033;-65
2021/12/22 01:32:01;;;;;;;11.27;7.22;;;0.70;81.30;;;;;;5046494;28;20047;-65
2021/12/22 01:34:27;;;;;;;10.30;7.72;;;0.60;81.30;;;;;;5047784;28;20049;-65
2021/12/22 01:36:53;;;;;;;10.95;6.57;;;0.60;81.30;;;;;;5037081;28;20071;-65
2021/12/22 01:39:19;;;;;;;11.77;7.60;;;0.60;81.20;;;;;;5051411;28;20462;-65
2021/12/22 01:41:45;;;;;;;10.65;6.95;;;0.60;81.20;;;;;;5050808;28;20580;-66
2021/12/22 01:44:13;;;;;;;10.68;6.90;;;0.60;81.20;;;;;;5050175;28;20051;-64
2021/12/22 01:49:10;;;;;;;9.57;7.28;;;0.60;81.20;;;;;;5049537;28;20053;-65
2021/12/22 01:52:11;;;;;;;10.10;6.88;;;0.60;81.20;;;;;;5050828;28;20049;-65
2021/12/22 01:55:05;;;;;;;8.95;6.20;;;0.60;81.30;;;;;;5049201;28;20056;-65
2021/12/22 01:57:34;;;;;;;11.55;7.22;;;0.50;81.30;;;;;;5043206;28;20512;-65
2021/12/22 02:00:02;;;;;;;16.67;7.22;;;0.50;81.30;;;;;;5050778;28;20072;-65
2021/12/22 02:02:28;;;;;;;11.60;6.82;;;0.50;81.20;;;;;;5050928;28;20110;-65
2021/12/22 02:04:54;;;;;;;12.77;6.35;;;0.50;81.20;;;;;;5049741;28;20048;-65
2021/12/22 02:07:20;;;;;;;12.95;6.57;;;0.50;81.20;;;;;;5051013;28;20041;-65
2021/12/22 02:10:09;;;;;;;12.43;7.03;;;0.50;81.20;;;;;;5051183;28;20052;-65
2021/12/22 02:12:40;;;;;;;9.80;6.82;;;0.40;81.20;;;;;;5049829;28;20049;-65
2021/12/22 02:15:07;;;;;;;15.32;7.45;;;0.40;81.10;;;;;;5050760;28;20045;-65
2021/12/22 02:17:34;;;;;;;9.55;6.28;;;0.40;81.10;;;;;;5050378;28;20504;-65
2021/12/22 02:20:00;;;;;;;14.82;7.78;;;0.40;81.00;;;;;;5049551;28;20059;-65
2021/12/22 02:22:27;;;;;;;15.60;7.80;;;0.40;81.00;;;;;;5050309;28;20045;-65
2021/12/22 02:24:58;;;;;;;11.48;7.00;;;0.40;81.00;;;;;;5039258;28;20057;-65
2021/12/22 02:27:43;;;;;;;15.90;7.32;;;0.40;81.00;;;;;;5028989;28;20379;-65
2021/12/22 02:30:16;;;;;;;12.18;6.57;;;0.30;80.90;;;;;;5040525;28;20049;-65
2021/12/22 02:35:38;;;;;;;14.70;7.80;;;0.30;80.90;;;;;;5044054;28;20400;-64
2021/12/22 02:38:07;;;;;;;18.77;7.75;;;0.30;80.90;;;;;;5049951;28;20067;-65
2021/12/22 02:40:33;;;;;;;16.05;7.72;;;0.30;80.80;;;;;;5032050;28;20045;-65
2021/12/22 02:43:05;;;;;;;11.57;6.90;;;0.30;80.80;;;;;;5049280;28;20130;-65
2021/12/22 02:45:33;;;;;;;13.68;6.72;;;0.30;80.70;;;;;;5050228;28;20120;-65
2021/12/22 02:48:01;;;;;;;13.75;7.25;;;0.30;80.80;;;;;;5045513;28;20045;-65
2021/12/22 02:50:27;;;;;;;12.43;7.07;;;0.30;80.80;;;;;;5049559;28;20132;-65
2021/12/22 02:53:06;;;;;;;15.10;7.75;;;0.30;80.80;;;;;;5048297;28;20119;-64
2021/12/22 02:58:12;;;;;;;10.95;6.88;;;0.30;80.80;;;;;;5047773;28;20084;-65
2021/12/22 03:01:05;;;;;;;11.65;7.25;;;0.20;80.70;;;;;;5032414;28;20132;-65
2021/12/22 03:06:09;;;;;;;13.35;8.25;;;0.20;80.90;;;;;;5049574;28;20160;-65
2021/12/22 03:08:35;;;;;;;14.43;8.00;;;0.20;80.90;;;;;;5049369;28;20050;-65
2021/12/22 03:11:01;;;;;;;12.50;6.80;;;0.20;80.90;;;;;;5049793;28;20079;-65
2021/12/22 03:13:26;;;;;;;14.30;7.68;;;0.30;80.80;;;;;;5049522;28;20033;-65
2021/12/22 03:15:52;;;;;;;12.45;7.85;;;0.20;80.80;;;;;;5047159;28;20045;-65
2021/12/22 03:18:18;;;;;;;14.02;7.10;;;0.20;80.90;;;;;;5048930;28;20529;-64
2021/12/22 03:20:48;;;;;;;10.68;6.82;;;0.20;80.90;;;;;;5049685;28;20045;-65
2021/12/22 03:23:14;;;;;;;18.58;8.57;;;0.30;80.90;;;;;;5048882;28;20056;-65
2021/12/22 03:25:39;;;;;;;13.02;7.97;;;0.30;80.90;;;;;;5032877;28;20037;-65
2021/12/22 03:28:05;;;;;;;12.50;7.15;;;0.30;80.90;;;;;;5047711;28;20531;-65
2021/12/22 03:30:31;;;;;;;19.60;8.23;;;0.30;80.90;;;;;;5048195;28;20049;-65
2021/12/22 03:32:57;;;;;;;16.38;7.18;;;0.30;80.90;;;;;;5049324;28;20049;-65
2021/12/22 03:35:23;;;;;;;18.60;8.45;;;0.30;80.90;;;;;;5047438;28;20425;-65
2021/12/22 03:37:53;;;;;;;13.20;7.38;;;0.30;80.90;;;;;;5048381;28;20072;-65
2021/12/22 03:40:21;;;;;;;17.50;7.65;;;0.20;80.90;;;;;;5049255;28;20136;-66
2021/12/22 03:42:47;;;;;;;17.55;8.35;;;0.30;81.00;;;;;;5048078;28;20044;-65
2021/12/22 03:45:14;;;;;;;15.95;7.40;;;0.20;81.00;;;;;;5037654;28;20037;-65
2021/12/22 03:47:39;;;;;;;15.63;8.02;;;0.20;81.00;;;;;;5047476;28;20049;-65
2021/12/22 03:50:07;;;;;;;11.52;6.78;;;0.20;81.00;;;;;;5047924;28;20036;-66
2021/12/22 03:52:34;;;;;;;15.63;7.28;;;0.20;81.10;;;;;;5048723;28;20052;-65
2021/12/22 03:54:59;;;;;;;14.10;7.55;;;0.20;81.00;;;;;;5046602;28;20041;-65
2021/12/22 03:57:26;;;;;;;16.45;8.88;;;0.20;80.80;;;;;;5049030;28;20094;-65
2021/12/22 03:59:52;;;;;;;14.55;7.10;;;0.20;80.80;;;;;;5047982;28;20090;-65
2021/12/22 04:02:20;;;;;;;13.38;7.05;;;0.20;80.80;;;;;;5047024;28;20111;-65
2021/12/22 04:04:48;;;;;;;12.85;7.22;;;0.10;80.70;;;;;;5048755;28;20087;-64
2021/12/22 04:07:15;;;;;;;16.00;8.85;;;0.10;80.70;;;;;;5048654;28;20040;-65
2021/12/22 04:09:41;;;;;;;17.40;7.75;;;0.00;80.80;;;;;;5046909;28;20037;-65
2021/12/22 04:12:07;;;;;;;17.13;6.78;;;0.00;81.00;;;;;;5048617;28;20118;-65
2021/12/22 04:14:33;;;;;;;20.25;8.13;;;0.10;80.90;;;;;;5040926;28;20138;-65
2021/12/22 04:16:59;;;;;;;13.02;7.63;;;0.00;81.00;;;;;;5048606;28;20052;-65
2021/12/22 04:19:25;;;;;;;17.50;8.32;;;0.00;81.00;;;;;;5047963;28;20617;-65
2021/12/22 04:21:51;;;;;;;13.38;6.75;;;0.00;80.90;;;;;;5048206;28;20415;-65
2021/12/22 04:24:18;;;;;;;17.88;8.85;;;0.00;80.90;;;;;;5047960;28;20456;-65
2021/12/22 04:26:44;;;;;;;15.70;7.22;;;0.00;80.90;;;;;;5048264;28;20267;-65
2021/12/22 04:29:11;;;;;;;16.05;7.45;;;0.00;80.90;;;;;;5048080;28;20405;-65
2021/12/22 04:31:37;;;;;;;15.13;6.93;;;0.00;80.70;;;;;;5048348;28;20061;-65
2021/12/22 04:34:07;;;;;;;12.93;7.60;;;0.00;80.60;;;;;;5048307;28;20049;-65
2021/12/22 04:36:33;;;;;;;15.18;7.95;;;0.00;80.60;;;;;;5048178;28;20504;-65
2021/12/22 04:38:59;;;;;;;13.55;8.07;;;0.00;80.60;;;;;;5048347;28;20092;-65
2021/12/22 04:41:26;;;;;;;15.73;7.13;;;0.00;80.50;;;;;;5048025;28;20084;-65
2021/12/22 04:43:53;;;;;;;11.30;7.65;;;0.00;80.50;;;;;;5038694;28;20124;-65
2021/12/22 04:46:20;;;;;;;11.95;7.32;;;0.00;80.40;;;;;;5047622;28;20059;-65
2021/12/22 04:48:46;;;;;;;16.48;9.80;;;0.00;80.40;;;;;;5047631;28;20053;-65
2021/12/22 04:51:25;;;;;;;15.25;7.45;;;0.00;80.40;;;;;;5048089;28;20041;-65
2021/12/22 04:53:57;;;;;;;16.15;7.88;;;0.00;80.40;;;;;;5047647;28;20032;-65
2021/12/22 04:56:22;;;;;;;;;;;-3276.70;80.40;;;;;;5048464;28;20041;-65
2021/12/22 04:58:48;;;;;;;13.68;7.90;;;-3276.70;80.40;;;;;;5047917;28;19989;-65
2021/12/22 05:01:14;;;;;;;18.70;9.65;;;-3276.60;80.50;;;;;;5044631;28;20391;-65
2021/12/22 05:03:41;;;;;;;13.70;7.75;;;-3276.70;80.50;;;;;;5048447;28;20045;-65
2021/12/22 05:06:06;;;;;;;17.60;8.98;;;0.00;80.50;;;;;;5047370;28;20131;-65
2021/12/22 05:08:32;;;;;;;14.63;7.43;;;0.00;80.50;;;;;;5048226;28;20123;-65
2021/12/22 05:10:58;;;;;;;18.02;7.88;;;-3276.70;80.50;;;;;;5048978;28;20048;-65
2021/12/22 05:13:23;;;;;;;19.67;9.27;;;-3276.70;80.50;;;;;;5051623;28;20557;-65
2021/12/22 05:15:51;;;;;;;16.02;8.60;;;-3276.70;80.60;;;;;;5051969;28;20045;-65
2021/12/22 05:18:48;;;;;;;15.90;8.80;;;-3276.70;80.60;;;;;;5052328;28;20041;-65
2021/12/22 05:21:11;;;;;;;15.63;8.15;;;-3276.60;80.60;;;;;;5048067;28;20140;-66
2021/12/22 05:23:37;;;;;;;19.45;9.23;;;-3276.60;80.70;;;;;;5052000;28;20522;-65
2021/12/22 05:26:02;;;;;;;12.32;7.63;;;-3276.60;80.70;;;;;;5052116;28;20049;-65
2021/12/22 05:28:28;;;;;;;15.73;8.90;;;-3276.60;80.70;;;;;;5052339;28;20544;-65
2021/12/22 05:30:54;;;;;;;15.38;8.23;;;-3276.60;80.70;;;;;;5050626;28;20037;-65
2021/12/22 05:33:19;;;;;;;15.43;8.60;;;-3276.50;80.90;;;;;;5047135;28;20033;-66
2021/12/22 05:35:45;;;;;;;15.18;8.07;;;-3276.50;81.00;;;;;;5052122;28;20041;-65
2021/12/22 05:38:11;;;;;;;16.05;9.65;;;-3276.50;81.10;;;;;;5050271;28;20041;-65
2021/12/22 05:40:37;;;;;;;16.70;9.25;;;-3276.50;81.10;;;;;;5034433;28;20049;-66
2021/12/22 05:43:02;;;;;;;17.48;8.30;;;-3276.50;81.00;;;;;;5032927;28;20049;-65
2021/12/22 05:45:28;;;;;;;15.70;9.18;;;-3276.50;81.10;;;;;;5051142;28;20415;-65
2021/12/22 05:47:54;;;;;;;17.15;8.23;;;-3276.50;81.10;;;;;;5051519;28;20562;-65
2021/12/22 05:50:21;;;;;;;12.63;7.60;;;-3276.50;81.00;;;;;;5049621;28;20135;-65
2021/12/22 05:52:47;;;;;;;12.15;6.57;;;-3276.60;81.00;;;;;;5050268;28;20048;-66
2021/12/22 05:55:13;;;;;;;20.98;10.05;;;-3276.50;80.90;;;;;;5049300;28;20041;-66
2021/12/22 05:57:38;;;;;;;17.05;8.73;;;-3276.50;80.90;;;;;;5050064;28;20049;-66
2021/12/22 06:00:05;;;;;;;16.73;9.18;;;-3276.50;80.80;;;;;;5048569;28;20057;-67
2021/12/22 06:02:31;;;;;;;18.17;9.35;;;-3276.50;80.80;;;;;;5050676;28;20094;-66
2021/12/22 06:04:56;;;;;;;18.75;9.63;;;-3276.40;80.80;;;;;;5051171;28;20049;-66
2021/12/22 06:07:22;;;;;;;16.35;8.20;;;-3276.40;80.80;;;;;;5051339;28;20567;-65
2021/12/22 06:09:48;;;;;;;12.65;7.82;;;-3276.50;80.90;;;;;;5044739;28;20065;-66
2021/12/22 06:12:14;;;;;;;18.10;8.90;;;-3276.30;80.90;;;;;;5031510;28;20055;-65
2021/12/22 06:14:39;;;;;;;16.73;9.27;;;-3276.30;81.00;;;;;;5031545;28;20116;-65
2021/12/22 06:17:05;;;;;;;15.40;9.30;;;-3276.40;80.90;;;;;;5038326;28;20087;-66
2021/12/22 06:19:31;;;;;;;16.23;9.68;;;-3276.40;81.00;;;;;;5049548;28;20076;-66
2021/12/22 06:21:57;;;;;;;16.30;9.40;;;-3276.40;81.00;;;;;;5049459;28;20036;-66
2021/12/22 06:24:22;;;;;;;15.90;9.20;;;-3276.30;81.00;;;;;;5050389;28;20408;-66
2021/12/22 06:26:48;;;;;;;15.05;8.82;;;-3276.30;81.00;;;;;;5051084;28;20041;-66
2021/12/22 06:29:13;;;;;;;14.13;8.70;;;-3276.30;81.00;;;;;;5050419;28;20049;-65
2021/12/22 06:31:39;;;;;;;14.40;9.50;;;-3276.30;80.90;;;;;;5050019;28;20536;-65
2021/12/22 06:34:05;;;;;;;17.73;8.95;;;-3276.30;80.90;;;;;;5032460;28;20518;-65
2021/12/22 06:36:32;;;;;;;16.65;10.38;;;-3276.30;80.80;;;;;;5049191;28;20064;-66
2021/12/22 06:38:57;;;;;;;28.58;11.35;;;-3276.30;80.80;;;;;;5043704;28;20077;-65
2021/12/22 06:41:23;;;;;;;16.73;9.65;;;-3276.20;80.70;;;;;;5049930;28;20506;-66
2021/12/22 06:43:49;;;;;;;16.85;9.57;;;-3276.20;80.80;;;;;;5049059;28;20052;-66
2021/12/22 06:46:14;;;;;;;17.23;9.18;;;-3276.20;80.70;;;;;;5049884;28;20075;-65
2021/12/22 06:48:40;;;;;;;15.13;9.27;;;-3276.20;80.80;;;;;;5048331;28;20073;-65
2021/12/22 06:51:06;;;;;;;19.83;9.40;;;-3276.30;80.70;;;;;;5050407;28;20037;-66
2021/12/22 06:53:34;;;;;;;15.68;9.48;;;-3276.30;80.60;;;;;;5048018;28;20048;-65
2021/12/22 06:56:01;;;;;;;19.27;9.00;;;-3276.30;80.60;;;;;;5048701;28;20462;-66
2021/12/22 06:58:26;;;;;;;19.27;9.57;;;-3276.30;80.50;;;;;;5047643;28;20509;-66
2021/12/22 07:00:52;;;;;;;15.93;8.70;;;-3276.30;80.40;;;;;;5049694;28;20041;-65
2021/12/22 07:03:18;;;;;;;16.73;9.57;;;-3276.20;80.40;;;;;;5031949;28;20041;-66
2021/12/22 07:05:43;;;;;;;16.70;9.77;;;-3276.20;80.40;;;;;;5045016;28;20504;-66
2021/12/22 07:08:09;;;;;;;19.45;9.98;;;-3276.20;80.50;;;;;;5049555;28;20373;-66
2021/12/22 07:10:35;;;;;;;16.05;9.43;;;-3276.20;80.40;;;;;;5049803;28;20072;-66
2021/12/22 07:13:00;;;;;;;16.85;9.13;;;-3276.20;80.70;;;;;;5049131;28;20482;-66
2021/12/22 07:15:26;;;;;;;17.25;10.27;;;-3276.30;80.90;;;;;;5040751;28;20033;-65
2021/12/22 07:17:52;;;;;;;20.00;10.05;;;-3276.40;81.60;;;;;;5031186;28;20052;-65
2021/12/22 07:20:21;;;;;;;19.02;9.80;;;-3276.50;80.80;;;;;;5031708;28;20068;-65
2021/12/22 07:22:47;;;;;;;17.13;10.27;;;-3276.50;80.40;;;;;;5047751;28;20045;-65
2021/12/22 07:25:14;;;;;;;20.13;11.20;;;-3276.50;80.20;;;;;;5049223;28;20049;-65
2021/12/22 07:27:40;;;;;;;17.23;8.38;;;-3276.50;80.00;;;;;;5049471;28;20142;-65
2021/12/22 07:30:06;;;;;;;17.15;9.68;;;-3276.40;79.90;;;;;;5048465;28;20135;-65
2021/12/22 07:32:32;;;;;;;15.75;9.18;;;-3276.40;79.90;;;;;;5049175;28;20192;-65
2021/12/22 07:35:42;;;;;;;22.80;10.57;;;-3276.30;79.80;;;;;;5047236;28;20076;-65
2021/12/22 07:38:32;;;;;;;15.48;8.57;;;-3276.40;79.90;;;;;;5043805;28;20041;-65
2021/12/22 07:40:59;;;;;;;20.35;9.55;;;-3276.40;80.30;;;;;;5048485;28;20041;-65
2021/12/22 07:43:26;;;;;;;21.80;9.63;;;-3276.40;80.10;;;;;;5047532;28;20053;-66
2021/12/22 07:45:52;;;;;;;20.90;8.93;;;-3276.50;80.30;;;;;;5047001;28;20045;-65
2021/12/22 07:48:19;;;;;;;16.58;10.02;;;-3276.50;80.20;;;;;;5047751;28;20040;-65
2021/12/22 07:50:45;;;;;;;17.30;9.63;;;-3276.50;80.00;;;;;;5046408;28;20040;-65
2021/12/22 07:53:10;;;;;;;15.98;8.95;;;-3276.50;79.90;;;;;;5039346;28;20559;-66
2021/12/22 07:55:36;;;;;;;17.55;10.02;;;-3276.50;79.80;;;;;;5046883;28;20053;-67
2021/12/22 07:58:03;;;;;;;18.40;9.85;;;-3276.50;79.90;;;;;;5028376;28;20071;-66
2021/12/22 08:00:29;;;;;;;18.13;10.00;;;-3276.50;79.80;;;;;;5046009;28;20041;-66
2021/12/22 08:02:54;;;;;;;17.45;9.70;;;-3276.50;79.70;;;;;;5046515;28;20032;-67
2021/12/22 08:05:20;;;;;;;15.00;9.65;;;-3276.50;79.70;;;;;;5046275;28;20616;-66
2021/12/22 08:07:46;;;;;;;14.40;9.52;;;-3276.50;79.70;;;;;;5045838;28;20040;-66
2021/12/22 08:10:11;;;;;;;23.95;10.45;;;-3276.50;79.70;;;;;;5048555;28;20033;-65
2021/12/22 08:12:37;;;;;;;17.15;9.68;;;-3276.60;79.70;;;;;;5045636;28;20055;-66
2021/12/22 08:15:04;;;;;;;17.65;9.73;;;-3276.60;79.60;;;;;;5046925;28;20049;-66
2021/12/22 08:17:32;;;;;;;21.73;9.30;;;-3276.60;79.70;;;;;;5026063;28;20032;-66
2021/12/22 08:19:58;;;;;;;14.95;8.82;;;-3276.60;79.70;;;;;;5046218;28;20131;-65
2021/12/22 08:22:24;;;;;;;15.95;9.68;;;-3276.60;79.60;;;;;;5048578;28;20080;-66
2021/12/22 08:24:53;;;;;;;17.77;9.63;;;-3276.60;79.70;;;;;;5043834;28;20505;-66
2021/12/22 08:27:21;;;;;;;19.05;10.00;;;-3276.60;79.80;;;;;;5047045;28;20871;-66
2021/12/22 08:29:48;;;;;;;16.90;9.25;;;-3276.60;79.70;;;;;;5047812;28;20120;-66
2021/12/22 08:32:14;;;;;;;19.23;10.20;;;-3276.60;79.70;;;;;;5047878;28;20111;-66
2021/12/22 08:34:41;;;;;;;24.08;10.38;;;-3276.60;79.70;;;;;;5047187;28;20076;-66
2021/12/22 08:40:01;;;;;;;19.52;9.68;;;-3276.60;79.70;;;;;;5038111;28;20138;-66
2021/12/22 08:42:28;;;;;;;15.57;9.50;;;-3276.50;80.10;;;;;;5047053;28;20115;-66
2021/12/22 08:44:54;;;;;;;20.23;9.80;;;-3276.60;80.20;;;;;;5046645;28;20064;-66
2021/12/22 08:47:20;;;;;;;27.17;10.93;;;-3276.60;80.40;;;;;;5048410;28;20386;-66
2021/12/22 08:49:46;;;;;;;19.92;9.25;;;-3276.60;80.40;;;;;;5051375;28;20060;-66
2021/12/22 08:52:12;;;;;;;17.23;9.35;;;-3276.70;80.40;;;;;;5050023;28;20134;-66
2021/12/22 08:54:38;;;;;;;17.88;10.13;;;-3276.70;80.40;;;;;;5051676;28;20045;-66
2021/12/22 08:57:05;;;;;;;19.02;8.85;;;0.00;80.30;;;;;;5041630;28;20052;-66
2021/12/22 08:59:30;;;;;;;19.00;9.48;;;0.00;80.30;;;;;;5051530;28;20052;-66
2021/12/22 09:01:56;;;;;;;16.05;9.27;;;0.00;80.40;;;;;;5053112;28;20044;-66
2021/12/22 09:04:22;;;;;;;23.80;10.52;;;0.00;80.40;;;;;;5052448;28;20029;-66
2021/12/22 09:06:49;;;;;;;18.77;10.60;;;0.00;80.40;;;;;;5051801;28;20045;-66
2021/12/22 09:09:16;;;;;;;18.70;8.88;;;0.00;80.50;;;;;;5050339;28;20102;-66
2021/12/22 09:11:42;;;;;;;18.20;10.48;;;0.00;80.60;;;;;;5047789;28;20123;-66
2021/12/22 09:14:09;;;;;;;21.60;11.18;;;0.00;80.70;;;;;;5051020;28;20143;-67
2021/12/22 09:16:37;;;;;;;17.70;10.15;;;0.00;80.80;;;;;;5048436;28;20506;-67
2021/12/22 09:19:05;;;;;;;24.08;11.40;;;0.10;80.70;;;;;;5048453;28;20056;-66
2021/12/22 09:21:30;;;;;;;21.35;10.48;;;0.10;80.70;;;;;;5044326;28;20138;-67
2021/12/22 09:23:56;;;;;;;18.98;11.35;;;0.10;80.70;;;;;;5048951;28;20049;-67
2021/12/22 09:26:22;;;;;;;18.95;10.45;;;0.20;80.80;;;;;;5033255;28;20049;-67
2021/12/22 09:28:48;;;;;;;21.10;11.00;;;0.20;80.90;;;;;;5049583;28;20124;-67
2021/12/22 09:31:14;;;;;;;18.85;10.07;;;0.30;81.00;;;;;;5050724;28;20067;-67
2021/12/22 09:33:40;;;;;;;24.27;10.75;;;0.30;80.90;;;;;;5050652;28;20033;-67
2021/12/22 09:36:08;;;;;;;20.10;10.38;;;0.30;80.90;;;;;;5048040;28;20844;-67
2021/12/22 09:38:34;;;;;;;24.02;11.30;;;0.30;81.10;;;;;;5050525;28;20073;-67
2021/12/22 09:41:00;;;;;;;20.48;11.43;;;0.20;81.20;;;;;;5050780;28;20043;-67
2021/12/22 09:43:27;;;;;;;19.42;10.25;;;0.30;81.30;;;;;;5042308;28;20057;-66
2021/12/22 09:45:58;;;;;;;32.05;10.65;;;0.20;81.40;;;;;;5050496;28;20098;-66
2021/12/22 09:52:15;;;;;;;19.85;11.65;;;0.20;81.80;;;;;;5051018;28;20279;-66
2021/12/22 09:53:47;;;;;;;29.30;11.13;;;0.30;81.90;;;;;;5044559;28;20053;-67
2021/12/22 09:56:16;;;;;;;24.33;10.32;;;0.40;82.00;;;;;;5050823;28;20045;-66
2021/12/22 09:58:44;;;;;;;19.00;11.00;;;0.30;82.20;;;;;;5042661;28;20049;-67
2021/12/22 10:01:10;;;;;;;21.25;10.55;;;0.30;82.20;;;;;;5051187;28;20041;-67
2021/12/22 10:03:37;;;;;;;24.38;11.60;;;0.40;82.00;;;;;;5049101;28;20044;-66
2021/12/22 10:06:03;;;;;;;20.85;11.30;;;0.30;82.10;;;;;;5049122;28;20059;-66
2021/12/22 10:08:31;;;;;;;21.98;12.18;;;0.30;82.20;;;;;;5049059;28;20037;-66
2021/12/22 10:11:09;;;;;;;20.02;11.32;;;0.40;82.10;;;;;;5048946;28;20048;-66
2021/12/22 10:13:43;;;;;;;20.00;10.85;;;0.50;82.00;;;;;;5049595;28;20059;-65
2021/12/22 10:16:14;;;;;;;21.05;10.70;;;0.50;82.00;;;;;;5049403;28;20053;-66
2021/12/22 10:18:40;;;;;;;13.13;6.30;;;0.60;82.10;;;;;;5050578;28;20553;-66
2021/12/22 10:21:33;;;;;;;17.73;9.75;;;0.70;82.10;;;;;;5032339;28;20128;-67
2021/12/22 10:24:02;;;;;;;20.13;10.45;;;1.20;84.20;;;;;;5041645;28;20052;-66
2021/12/22 10:26:28;;;;;;;25.60;11.38;;;2.00;85.80;;;;;;5049628;28;20116;-66
2021/12/22 10:28:55;;;;;;;24.80;11.15;;;2.10;82.40;;;;;;5049889;28;20555;-66
2021/12/22 10:31:31;;;;;;;19.98;10.48;;;2.00;80.60;;;;;;5049705;28;20076;-66
2021/12/22 10:33:58;;;;;;;20.73;11.55;;;1.80;80.10;;;;;;5046263;28;20053;-66
2021/12/22 10:36:24;;;;;;;19.65;10.77;;;1.70;79.70;;;;;;5032204;28;20076;-66
2021/12/22 10:39:01;;;;;;;25.55;11.77;;;1.60;79.70;;;;;;5050597;28;20041;-66
2021/12/22 10:41:29;;;;;;;20.23;11.10;;;1.40;80.00;;;;;;5049136;28;20064;-66
2021/12/22 10:43:55;;;;;;;18.27;11.10;;;1.40;80.20;;;;;;5036807;28;20064;-66
2021/12/22 10:46:32;;;;;;;23.00;11.25;;;1.40;80.30;;;;;;5046155;28;20572;-66
2021/12/22 10:49:14;;;;;;;20.58;11.85;;;1.30;80.50;;;;;;5044307;28;20044;-66
2021/12/22 10:51:43;;;;;;;22.13;11.18;;;1.20;80.60;;;;;;5045648;28;20070;-65
2021/12/22 10:54:16;;;;;;;19.05;10.48;;;1.20;80.70;;;;;;5049435;28;20063;-66
2021/12/22 10:56:47;;;;;;;24.45;12.98;;;2.00;85.10;;;;;;5046712;28;20041;-66
2021/12/22 10:59:15;;;;;;;20.65;11.70;;;2.00;82.30;;;;;;5049968;28;20056;-67
2021/12/22 11:02:05;;;;;;;26.02;13.23;;;1.90;80.80;;;;;;5046736;28;20044;-66
2021/12/22 11:04:32;;;;;;;19.58;11.52;;;1.70;80.00;;;;;;5048952;28;20049;-66
2021/12/22 11:07:20;;;;;;;20.33;11.25;;;1.60;80.00;;;;;;5046962;28;20498;-66
2021/12/22 11:09:45;;;;;;;20.38;10.45;;;1.50;80.30;;;;;;5043220;28;20494;-66
2021/12/22 11:12:13;;;;;;;16.60;10.15;;;1.40;80.20;;;;;;5047481;28;20053;-66
2021/12/22 11:14:41;;;;;;;23.08;11.40;;;1.40;80.40;;;;;;5048752;28;20497;-66
2021/12/22 11:17:10;;;;;;;21.85;11.75;;;1.40;80.50;;;;;;5049531;28;20045;-66
2021/12/22 11:20:04;;;;;;;20.80;10.55;;;1.40;80.60;;;;;;5049224;28;20045;-66
2021/12/22 11:22:52;;;;;;;19.52;11.50;;;1.30;80.50;;;;;;5039194;28;20051;-66
2021/12/22 11:25:20;;;;;;;22.23;12.57;;;1.20;80.60;;;;;;5047872;28;20067;-66
2021/12/22 11:27:47;;;;;;;19.23;11.10;;;1.10;80.90;;;;;;5048323;28;20067;-66
2021/12/22 11:30:12;;;;;;;27.45;13.05;;;1.10;81.10;;;;;;5049302;28;20142;-67
2021/12/22 11:32:39;;;;;;;28.52;12.05;;;1.20;81.10;;;;;;5048374;28;20068;-66
2021/12/22 11:35:08;;;;;;;17.92;10.80;;;1.10;81.10;;;;;;5029465;28;20142;-66
2021/12/22 11:37:35;;;;;;;25.15;12.48;;;1.20;81.20;;;;;;5044117;28;20045;-66
2021/12/22 11:40:01;;;;;;;25.70;12.57;;;1.20;81.50;;;;;;5030808;28;20044;-67
2021/12/22 11:42:32;;;;;;;20.95;12.50;;;1.20;81.50;;;;;;5041857;28;20510;-67
2021/12/22 11:45:10;;;;;;;20.55;11.30;;;1.10;81.60;;;;;;5043503;28;20384;-68
2021/12/22 11:47:37;;;;;;;24.60;11.93;;;1.10;81.70;;;;;;5045967;28;20859;-65
2021/12/22 11:50:05;;;;;;;24.48;12.00;;;1.20;81.70;;;;;;5029366;28;20048;-67
2021/12/22 11:52:33;;;;;;;21.27;13.25;;;1.20;81.60;;;;;;5045249;28;20056;-67
2021/12/22 11:55:05;;;;;;;21.75;12.32;;;1.20;81.60;;;;;;5030751;28;20127;-66
2021/12/22 11:57:30;;;;;;;20.95;11.75;;;1.20;81.70;;;;;;5044918;28;20041;-66
2021/12/22 11:59:56;;;;;;;23.17;11.82;;;1.10;81.90;;;;;;5047355;28;20045;-67
2021/12/22 12:02:32;;;;;;;20.95;12.05;;;1.10;82.00;;;;;;5040345;28;20504;-66
2021/12/22 12:05:23;;;;;;;16.95;10.60;;;1.20;82.10;;;;;;5045951;28;20067;-67
2021/12/22 12:07:56;;;;;;;22.20;11.63;;;1.10;82.10;;;;;;5043050;28;20049;-66
2021/12/22 12:10:48;;;;;;;21.13;12.20;;;1.10;82.40;;;;;;5046037;28;20111;-66
2021/12/22 12:13:35;;;;;;;21.25;11.00;;;1.10;82.50;;;;;;5044359;28;20041;-66
2021/12/22 12:21:56;;;;;;;20.65;11.43;;;1.20;82.40;;;;;;5047919;28;20045;-66
2021/12/22 12:24:31;;;;;;;21.17;11.50;;;1.30;82.10;;;;;;5045777;28;20485;-67
2021/12/22 12:27:21;;;;;;;23.10;11.25;;;1.30;81.90;;;;;;5028260;28;20102;-66
2021/12/22 12:29:58;;;;;;;22.48;11.80;;;1.30;81.90;;;;;;5029010;28;20107;-67
2021/12/22 12:32:39;;;;;;;20.05;12.07;;;1.40;81.90;;;;;;5047757;28;20057;-66
2021/12/22 12:35:23;;;;;;;20.50;11.15;;;1.40;81.80;;;;;;5046950;28;20442;-66
2021/12/22 12:38:16;;;;;;;23.13;12.63;;;1.50;81.70;;;;;;5046362;28;20053;-66
2021/12/22 12:40:57;;;;;;;23.55;11.85;;;1.50;81.60;;;;;;5038873;28;20055;-66
2021/12/22 12:43:45;;;;;;;20.92;11.07;;;1.50;81.50;;;;;;5045091;28;20053;-66
2021/12/22 12:46:31;;;;;;;19.58;10.95;;;1.50;81.60;;;;;;5044000;28;20049;-65
2021/12/22 12:49:02;;;;;;;22.55;11.68;;;1.50;81.60;;;;;;5045528;28;20106;-65
2021/12/22 12:51:36;;;;;;;18.83;11.80;;;1.50;81.70;;;;;;5045786;28;20037;-65
2021/12/22 12:54:17;;;;;;;21.83;12.35;;;1.50;81.60;;;;;;5047271;28;20053;-65
2021/12/22 12:56:45;;;;;;;23.00;11.75;;;1.60;81.40;;;;;;5047332;28;20127;-65
2021/12/22 12:59:13;;;;;;;21.25;11.38;;;1.50;81.70;;;;;;5046504;28;20044;-65
2021/12/22 13:01:44;;;;;;;25.42;13.02;;;1.50;81.60;;;;;;5047895;28;20063;-66